Terminal Aerodrome Forecast
Issued by NWS

Home | Current Version | Previous Version | Text Only | Print | Product List | Glossary On
Versions: 1 2 3 4 5 6 7 8 9 10 11 12 13 14 15 16 17 18 19 20 21 22 23 24 25 26
000
FTUS43 KEAX 220500
TAFMKC
TAF
KMKC 220520Z 2206/2306 17013G23KT P6SM VCSH OVC010
      TEMPO 2207/2210 4SM -DZ BKN006
     FM221200 18012G22KT 3SM -RA BR OVC008
     FM221900 24011KT 6SM BR OVC025=

USA.gov is the U.S. government's official web portal to all federal, state and local government web resources and services.